sensor_id;sensor_type;location;lat;lon;timestamp;temperature;humidity
21778;DHT22;11050;52.222;20.916;2024-02-26T00:01:42;5.80;99.90
21778;DHT22;11050;52.222;20.916;2024-02-26T00:04:11;5.80;99.90
21778;DHT22;11050;52.222;20.916;2024-02-26T00:06:38;5.70;99.90
21778;DHT22;11050;52.222;20.916;2024-02-26T00:09:10;5.70;99.90
21778;DHT22;11050;52.222;20.916;2024-02-26T00:11:36;5.70;99.90
21778;DHT22;11050;52.222;20.916;2024-02-26T00:14:03;5.60;99.90
21778;DHT22;11050;52.222;20.916;2024-02-26T00:16:29;5.60;99.90
21778;DHT22;11050;52.222;20.916;2024-02-26T00:18:55;5.60;99.90
21778;DHT22;11050;52.222;20.916;2024-02-26T00:21:21;5.60;99.90
21778;DHT22;11050;52.222;20.916;2024-02-26T00:23:47;5.50;99.90
21778;DHT22;11050;52.222;20.916;2024-02-26T00:26:14;5.50;99.90
21778;DHT22;11050;52.222;20.916;2024-02-26T00:28:40;5.40;99.90
21778;DHT22;11050;52.222;20.916;2024-02-26T00:31:06;5.40;99.90
21778;DHT22;11050;52.222;20.916;2024-02-26T00:33:32;5.40;99.90
21778;DHT22;11050;52.222;20.916;2024-02-26T00:35:57;5.40;99.90
21778;DHT22;11050;52.222;20.916;2024-02-26T00:38:23;5.30;99.90
21778;DHT22;11050;52.222;20.916;2024-02-26T00:40:49;5.30;99.90
21778;DHT22;11050;52.222;20.916;2024-02-26T00:43:14;5.30;99.90
21778;DHT22;11050;52.222;20.916;2024-02-26T00:45:40;5.30;99.90
21778;DHT22;11050;52.222;20.916;2024-02-26T00:48:06;5.30;99.90
21778;DHT22;11050;52.222;20.916;2024-02-26T00:50:33;5.20;99.90
21778;DHT22;11050;52.222;20.916;2024-02-26T00:53:00;5.20;99.90
21778;DHT22;11050;52.222;20.916;2024-02-26T00:55:26;5.20;99.90
21778;DHT22;11050;52.222;20.916;2024-02-26T00:57:51;5.20;99.90
21778;DHT22;11050;52.222;20.916;2024-02-26T01:00:17;5.10;99.90
21778;DHT22;11050;52.222;20.916;2024-02-26T01:02:43;5.10;99.90
21778;DHT22;11050;52.222;20.916;2024-02-26T01:05:12;5.10;99.90
21778;DHT22;11050;52.222;20.916;2024-02-26T01:07:39;5.10;99.90
21778;DHT22;11050;52.222;20.916;2024-02-26T01:10:06;5.10;99.90
21778;DHT22;11050;52.222;20.916;2024-02-26T01:12:33;5.10;99.90
21778;DHT22;11050;52.222;20.916;2024-02-26T01:15:00;5.00;99.90
21778;DHT22;11050;52.222;20.916;2024-02-26T01:17:26;5.10;99.90
21778;DHT22;11050;52.222;20.916;2024-02-26T01:19:52;5.10;99.90
21778;DHT22;11050;52.222;20.916;2024-02-26T01:22:19;5.10;99.90
21778;DHT22;11050;52.222;20.916;2024-02-26T01:24:45;5.10;99.90
21778;DHT22;11050;52.222;20.916;2024-02-26T01:27:10;5.10;99.90
21778;DHT22;11050;52.222;20.916;2024-02-26T01:29:36;5.10;99.90
21778;DHT22;11050;52.222;20.916;2024-02-26T01:32:02;5.10;99.90
21778;DHT22;11050;52.222;20.916;2024-02-26T01:34:30;5.10;99.90
21778;DHT22;11050;52.222;20.916;2024-02-26T01:36:56;5.10;99.90
21778;DHT22;11050;52.222;20.916;2024-02-26T01:39:21;5.00;99.90
21778;DHT22;11050;52.222;20.916;2024-02-26T01:41:47;5.10;99.90
21778;DHT22;11050;52.222;20.916;2024-02-26T01:44:13;5.10;99.90
21778;DHT22;11050;52.222;20.916;2024-02-26T01:46:39;5.10;99.90
21778;DHT22;11050;52.222;20.916;2024-02-26T01:49:06;5.10;99.90
21778;DHT22;11050;52.222;20.916;2024-02-26T01:51:37;5.10;99.90
21778;DHT22;11050;52.222;20.916;2024-02-26T01:54:04;5.10;99.90
21778;DHT22;11050;52.222;20.916;2024-02-26T01:56:30;5.10;99.90
21778;DHT22;11050;52.222;20.916;2024-02-26T01:59:00;5.10;99.90
21778;DHT22;11050;52.222;20.916;2024-02-26T02:01:28;5.00;99.90
21778;DHT22;11050;52.222;20.916;2024-02-26T02:03:58;5.00;99.90
21778;DHT22;11050;52.222;20.916;2024-02-26T02:06:25;5.00;99.90
21778;DHT22;11050;52.222;20.916;2024-02-26T02:08:54;5.00;99.90
21778;DHT22;11050;52.222;20.916;2024-02-26T02:11:20;5.00;99.90
21778;DHT22;11050;52.222;20.916;2024-02-26T02:13:46;4.90;99.90
21778;DHT22;11050;52.222;20.916;2024-02-26T02:16:12;4.90;99.90
21778;DHT22;11050;52.222;20.916;2024-02-26T02:18:38;4.90;99.90
21778;DHT22;11050;52.222;20.916;2024-02-26T02:21:04;4.90;99.90
21778;DHT22;11050;52.222;20.916;2024-02-26T02:23:30;4.80;99.90
21778;DHT22;11050;52.222;20.916;2024-02-26T02:25:57;4.90;99.90
21778;DHT22;11050;52.222;20.916;2024-02-26T02:28:26;4.80;99.90
21778;DHT22;11050;52.222;20.916;2024-02-26T02:30:53;4.80;99.90
21778;DHT22;11050;52.222;20.916;2024-02-26T02:33:20;4.80;99.90
21778;DHT22;11050;52.222;20.916;2024-02-26T02:35:48;4.70;99.90
21778;DHT22;11050;52.222;20.916;2024-02-26T02:38:14;4.70;99.90
21778;DHT22;11050;52.222;20.916;2024-02-26T02:40:39;4.60;99.90
21778;DHT22;11050;52.222;20.916;2024-02-26T02:43:05;4.70;99.90
21778;DHT22;11050;52.222;20.916;2024-02-26T02:45:31;4.60;99.90
21778;DHT22;11050;52.222;20.916;2024-02-26T02:47:57;4.50;99.90
21778;DHT22;11050;52.222;20.916;2024-02-26T02:50:22;4.50;99.90
21778;DHT22;11050;52.222;20.916;2024-02-26T02:52:48;4.50;99.90
21778;DHT22;11050;52.222;20.916;2024-02-26T02:55:15;4.50;99.90
21778;DHT22;11050;52.222;20.916;2024-02-26T02:57:41;4.40;99.90
21778;DHT22;11050;52.222;20.916;2024-02-26T03:00:11;4.40;99.90
21778;DHT22;11050;52.222;20.916;2024-02-26T03:02:37;4.40;99.90
21778;DHT22;11050;52.222;20.916;2024-02-26T03:05:04;4.40;99.90
21778;DHT22;11050;52.222;20.916;2024-02-26T03:07:30;4.40;99.90
21778;DHT22;11050;52.222;20.916;2024-02-26T03:09:55;4.30;99.90
21778;DHT22;11050;52.222;20.916;2024-02-26T03:12:21;4.30;99.90
21778;DHT22;11050;52.222;20.916;2024-02-26T03:14:47;4.30;99.90
21778;DHT22;11050;52.222;20.916;2024-02-26T03:17:13;4.40;99.90
21778;DHT22;11050;52.222;20.916;2024-02-26T03:19:39;4.40;99.90
21778;DHT22;11050;52.222;20.916;2024-02-26T03:22:05;4.40;99.90
21778;DHT22;11050;52.222;20.916;2024-02-26T03:24:30;4.30;99.90
21778;DHT22;11050;52.222;20.916;2024-02-26T03:26:56;4.30;99.90
21778;DHT22;11050;52.222;20.916;2024-02-26T03:29:22;4.30;99.90
21778;DHT22;11050;52.222;20.916;2024-02-26T03:31:48;4.30;99.90
21778;DHT22;11050;52.222;20.916;2024-02-26T03:34:14;4.30;99.90
21778;DHT22;11050;52.222;20.916;2024-02-26T03:36:40;4.30;99.90
21778;DHT22;11050;52.222;20.916;2024-02-26T03:39:07;4.20;99.90
21778;DHT22;11050;52.222;20.916;2024-02-26T03:41:34;4.20;99.90
21778;DHT22;11050;52.222;20.916;2024-02-26T03:44:00;4.20;99.90
21778;DHT22;11050;52.222;20.916;2024-02-26T03:46:27;4.20;99.90
21778;DHT22;11050;52.222;20.916;2024-02-26T03:48:52;4.10;99.90
21778;DHT22;11050;52.222;20.916;2024-02-26T03:51:18;4.10;99.90
21778;DHT22;11050;52.222;20.916;2024-02-26T03:53:44;4.10;99.90
21778;DHT22;11050;52.222;20.916;2024-02-26T03:56:11;4.10;99.90
21778;DHT22;11050;52.222;20.916;2024-02-26T03:58:38;4.00;99.90
21778;DHT22;11050;52.222;20.916;2024-02-26T04:01:07;4.00;99.90
21778;DHT22;11050;52.222;20.916;2024-02-26T04:03:33;4.10;99.90
21778;DHT22;11050;52.222;20.916;2024-02-26T04:05:59;4.10;99.90
21778;DHT22;11050;52.222;20.916;2024-02-26T04:08:25;4.10;99.90
21778;DHT22;11050;52.222;20.916;2024-02-26T04:10:51;4.10;99.90
21778;DHT22;11050;52.222;20.916;2024-02-26T04:13:17;4.10;99.90
21778;DHT22;11050;52.222;20.916;2024-02-26T04:15:43;4.10;99.90
21778;DHT22;11050;52.222;20.916;2024-02-26T04:18:09;4.10;99.90
21778;DHT22;11050;52.222;20.916;2024-02-26T04:20:34;4.10;99.90
21778;DHT22;11050;52.222;20.916;2024-02-26T04:23:00;4.10;99.90
21778;DHT22;11050;52.222;20.916;2024-02-26T04:25:26;4.20;99.90
21778;DHT22;11050;52.222;20.916;2024-02-26T04:27:52;4.20;99.90
21778;DHT22;11050;52.222;20.916;2024-02-26T04:30:17;4.20;99.90
21778;DHT22;11050;52.222;20.916;2024-02-26T04:32:43;4.20;99.90
21778;DHT22;11050;52.222;20.916;2024-02-26T04:35:09;4.20;99.90
21778;DHT22;11050;52.222;20.916;2024-02-26T04:37:35;4.20;99.90
21778;DHT22;11050;52.222;20.916;2024-02-26T04:40:01;4.20;99.90
21778;DHT22;11050;52.222;20.916;2024-02-26T04:42:28;4.20;99.90
21778;DHT22;11050;52.222;20.916;2024-02-26T04:44:57;4.10;99.90
21778;DHT22;11050;52.222;20.916;2024-02-26T04:47:22;4.10;99.90
21778;DHT22;11050;52.222;20.916;2024-02-26T04:49:52;4.10;99.90
21778;DHT22;11050;52.222;20.916;2024-02-26T04:52:18;4.10;99.90
21778;DHT22;11050;52.222;20.916;2024-02-26T04:54:44;4.10;99.90
21778;DHT22;11050;52.222;20.916;2024-02-26T04:57:10;4.10;99.90
21778;DHT22;11050;52.222;20.916;2024-02-26T04:59:36;4.10;99.90
21778;DHT22;11050;52.222;20.916;2024-02-26T05:02:01;4.10;99.90
21778;DHT22;11050;52.222;20.916;2024-02-26T05:04:27;4.00;99.90
21778;DHT22;11050;52.222;20.916;2024-02-26T05:06:53;4.10;99.90
21778;DHT22;11050;52.222;20.916;2024-02-26T05:09:19;4.10;99.90
21778;DHT22;11050;52.222;20.916;2024-02-26T05:11:45;4.10;99.90
21778;DHT22;11050;52.222;20.916;2024-02-26T05:14:11;4.10;99.90
21778;DHT22;11050;52.222;20.916;2024-02-26T05:16:37;4.20;99.90
21778;DHT22;11050;52.222;20.916;2024-02-26T05:19:02;4.10;99.90
21778;DHT22;11050;52.222;20.916;2024-02-26T05:21:28;4.20;99.90
21778;DHT22;11050;52.222;20.916;2024-02-26T05:23:54;4.20;99.90
21778;DHT22;11050;52.222;20.916;2024-02-26T05:26:21;4.30;99.90
21778;DHT22;11050;52.222;20.916;2024-02-26T05:28:47;4.30;99.90
21778;DHT22;11050;52.222;20.916;2024-02-26T05:31:13;4.40;99.90
21778;DHT22;11050;52.222;20.916;2024-02-26T05:33:39;4.50;99.90
21778;DHT22;11050;52.222;20.916;2024-02-26T05:36:06;4.60;99.90
21778;DHT22;11050;52.222;20.916;2024-02-26T05:38:32;4.60;99.90
21778;DHT22;11050;52.222;20.916;2024-02-26T05:41:00;4.70;99.90
21778;DHT22;11050;52.222;20.916;2024-02-26T05:43:26;4.70;99.90
21778;DHT22;11050;52.222;20.916;2024-02-26T05:45:53;4.80;99.90
21778;DHT22;11050;52.222;20.916;2024-02-26T05:48:19;4.90;99.90
21778;DHT22;11050;52.222;20.916;2024-02-26T05:50:46;4.90;99.90
21778;DHT22;11050;52.222;20.916;2024-02-26T05:53:12;5.00;99.90
21778;DHT22;11050;52.222;20.916;2024-02-26T05:55:38;5.00;99.90
21778;DHT22;11050;52.222;20.916;2024-02-26T05:58:04;5.00;99.90
21778;DHT22;11050;52.222;20.916;2024-02-26T06:00:30;5.10;99.90
21778;DHT22;11050;52.222;20.916;2024-02-26T06:02:56;5.20;99.90
21778;DHT22;11050;52.222;20.916;2024-02-26T06:05:22;5.30;99.90
21778;DHT22;11050;52.222;20.916;2024-02-26T06:07:47;5.30;99.90
21778;DHT22;11050;52.222;20.916;2024-02-26T06:10:13;5.30;99.90
21778;DHT22;11050;52.222;20.916;2024-02-26T06:12:39;5.40;99.90
21778;DHT22;11050;52.222;20.916;2024-02-26T06:15:06;5.50;99.90
21778;DHT22;11050;52.222;20.916;2024-02-26T06:17:32;5.50;99.90
21778;DHT22;11050;52.222;20.916;2024-02-26T06:19:59;5.60;99.90
21778;DHT22;11050;52.222;20.916;2024-02-26T06:22:25;5.60;99.90
21778;DHT22;11050;52.222;20.916;2024-02-26T06:24:51;5.70;99.90
21778;DHT22;11050;52.222;20.916;2024-02-26T06:27:17;5.80;99.90
21778;DHT22;11050;52.222;20.916;2024-02-26T06:29:43;5.80;99.90
21778;DHT22;11050;52.222;20.916;2024-02-26T06:32:09;5.90;99.90
21778;DHT22;11050;52.222;20.916;2024-02-26T06:34:35;5.90;99.90
21778;DHT22;11050;52.222;20.916;2024-02-26T06:37:01;6.00;99.90
21778;DHT22;11050;52.222;20.916;2024-02-26T06:39:26;6.10;99.90
21778;DHT22;11050;52.222;20.916;2024-02-26T06:41:52;6.20;99.90
21778;DHT22;11050;52.222;20.916;2024-02-26T06:44:25;6.20;99.90
21778;DHT22;11050;52.222;20.916;2024-02-26T06:46:52;6.30;99.90
21778;DHT22;11050;52.222;20.916;2024-02-26T06:49:18;6.40;99.90
21778;DHT22;11050;52.222;20.916;2024-02-26T06:51:43;6.50;99.90
21778;DHT22;11050;52.222;20.916;2024-02-26T06:54:09;6.60;99.90
21778;DHT22;11050;52.222;20.916;2024-02-26T06:56:35;6.70;99.90
21778;DHT22;11050;52.222;20.916;2024-02-26T06:59:00;6.70;99.90
21778;DHT22;11050;52.222;20.916;2024-02-26T07:01:26;6.80;99.90
21778;DHT22;11050;52.222;20.916;2024-02-26T07:03:52;6.80;99.90
21778;DHT22;11050;52.222;20.916;2024-02-26T07:06:18;6.90;99.90
21778;DHT22;11050;52.222;20.916;2024-02-26T07:08:43;6.90;99.90
21778;DHT22;11050;52.222;20.916;2024-02-26T07:11:10;7.10;99.90
21778;DHT22;11050;52.222;20.916;2024-02-26T07:13:36;7.10;99.90
21778;DHT22;11050;52.222;20.916;2024-02-26T07:16:02;7.20;99.90
21778;DHT22;11050;52.222;20.916;2024-02-26T07:18:28;7.30;99.90
21778;DHT22;11050;52.222;20.916;2024-02-26T07:20:54;7.40;99.90
21778;DHT22;11050;52.222;20.916;2024-02-26T07:23:21;7.50;99.90
21778;DHT22;11050;52.222;20.916;2024-02-26T07:25:46;7.60;99.90
21778;DHT22;11050;52.222;20.916;2024-02-26T07:28:14;7.70;99.90
21778;DHT22;11050;52.222;20.916;2024-02-26T07:30:40;7.80;99.90
21778;DHT22;11050;52.222;20.916;2024-02-26T07:33:06;7.90;99.90
21778;DHT22;11050;52.222;20.916;2024-02-26T07:35:32;8.10;99.90
21778;DHT22;11050;52.222;20.916;2024-02-26T07:37:59;8.20;99.90
21778;DHT22;11050;52.222;20.916;2024-02-26T07:40:24;8.30;99.90
21778;DHT22;11050;52.222;20.916;2024-02-26T07:42:50;8.50;99.90
21778;DHT22;11050;52.222;20.916;2024-02-26T07:45:16;8.50;99.90
21778;DHT22;11050;52.222;20.916;2024-02-26T07:47:45;8.60;99.90
21778;DHT22;11050;52.222;20.916;2024-02-26T07:50:12;8.70;99.90
21778;DHT22;11050;52.222;20.916;2024-02-26T07:52:38;8.70;99.90
21778;DHT22;11050;52.222;20.916;2024-02-26T07:55:05;8.80;99.90
21778;DHT22;11050;52.222;20.916;2024-02-26T07:57:32;8.90;99.90
21778;DHT22;11050;52.222;20.916;2024-02-26T08:00:04;9.10;99.90
21778;DHT22;11050;52.222;20.916;2024-02-26T08:02:34;9.20;99.90
21778;DHT22;11050;52.222;20.916;2024-02-26T08:05:00;9.40;99.90
21778;DHT22;11050;52.222;20.916;2024-02-26T08:07:26;9.50;99.90
21778;DHT22;11050;52.222;20.916;2024-02-26T08:09:52;9.70;99.90
21778;DHT22;11050;52.222;20.916;2024-02-26T08:12:18;9.80;99.90
21778;DHT22;11050;52.222;20.916;2024-02-26T08:14:43;9.90;99.90
21778;DHT22;11050;52.222;20.916;2024-02-26T08:17:09;10.00;99.90
21778;DHT22;11050;52.222;20.916;2024-02-26T08:19:35;10.00;99.90
21778;DHT22;11050;52.222;20.916;2024-02-26T08:22:01;10.10;99.90
21778;DHT22;11050;52.222;20.916;2024-02-26T08:24:28;10.20;99.90
21778;DHT22;11050;52.222;20.916;2024-02-26T08:26:53;10.30;99.90
21778;DHT22;11050;52.222;20.916;2024-02-26T08:29:19;10.40;99.90
21778;DHT22;11050;52.222;20.916;2024-02-26T08:31:45;10.30;99.90
21778;DHT22;11050;52.222;20.916;2024-02-26T08:34:11;10.40;99.90
21778;DHT22;11050;52.222;20.916;2024-02-26T08:36:37;10.40;99.90
21778;DHT22;11050;52.222;20.916;2024-02-26T08:39:03;10.40;99.90
21778;DHT22;11050;52.222;20.916;2024-02-26T08:41:29;10.50;99.90
21778;DHT22;11050;52.222;20.916;2024-02-26T08:43:55;10.50;99.90
21778;DHT22;11050;52.222;20.916;2024-02-26T08:46:20;10.50;99.90
21778;DHT22;11050;52.222;20.916;2024-02-26T08:48:46;10.50;99.90
21778;DHT22;11050;52.222;20.916;2024-02-26T08:51:12;10.50;99.90
21778;DHT22;11050;52.222;20.916;2024-02-26T08:53:38;10.50;99.90
21778;DHT22;11050;52.222;20.916;2024-02-26T08:56:05;10.50;99.90
21778;DHT22;11050;52.222;20.916;2024-02-26T08:58:31;10.60;99.90
21778;DHT22;11050;52.222;20.916;2024-02-26T09:00:57;10.70;99.90
21778;DHT22;11050;52.222;20.916;2024-02-26T09:03:23;10.80;99.90
21778;DHT22;11050;52.222;20.916;2024-02-26T09:05:49;10.80;99.90
21778;DHT22;11050;52.222;20.916;2024-02-26T09:08:15;10.90;99.90
21778;DHT22;11050;52.222;20.916;2024-02-26T09:10:42;11.00;99.90
21778;DHT22;11050;52.222;20.916;2024-02-26T09:13:08;11.10;99.90
21778;DHT22;11050;52.222;20.916;2024-02-26T09:15:33;11.20;99.90
21778;DHT22;11050;52.222;20.916;2024-02-26T09:17:59;11.20;99.90
21778;DHT22;11050;52.222;20.916;2024-02-26T09:20:25;11.30;99.90
21778;DHT22;11050;52.222;20.916;2024-02-26T09:22:51;11.40;99.90
21778;DHT22;11050;52.222;20.916;2024-02-26T09:25:17;11.50;99.90
21778;DHT22;11050;52.222;20.916;2024-02-26T09:27:44;11.50;99.90
21778;DHT22;11050;52.222;20.916;2024-02-26T09:30:11;11.60;99.90
21778;DHT22;11050;52.222;20.916;2024-02-26T09:32:38;11.60;99.90
21778;DHT22;11050;52.222;20.916;2024-02-26T09:35:05;11.70;99.90
21778;DHT22;11050;52.222;20.916;2024-02-26T09:37:31;11.80;99.90
21778;DHT22;11050;52.222;20.916;2024-02-26T09:39:58;11.90;99.90
21778;DHT22;11050;52.222;20.916;2024-02-26T09:42:27;11.90;99.90
21778;DHT22;11050;52.222;20.916;2024-02-26T09:44:59;12.00;99.90
21778;DHT22;11050;52.222;20.916;2024-02-26T09:47:28;12.00;99.90
21778;DHT22;11050;52.222;20.916;2024-02-26T09:49:57;12.10;99.90
21778;DHT22;11050;52.222;20.916;2024-02-26T09:52:24;12.20;99.90
21778;DHT22;11050;52.222;20.916;2024-02-26T09:54:51;12.20;99.90
21778;DHT22;11050;52.222;20.916;2024-02-26T09:57:16;12.20;99.90
21778;DHT22;11050;52.222;20.916;2024-02-26T09:59:44;12.30;99.90
21778;DHT22;11050;52.222;20.916;2024-02-26T10:02:13;12.40;99.90
21778;DHT22;11050;52.222;20.916;2024-02-26T10:04:40;12.50;99.90
21778;DHT22;11050;52.222;20.916;2024-02-26T10:07:12;12.60;99.90
21778;DHT22;11050;52.222;20.916;2024-02-26T10:09:39;12.60;99.90
21778;DHT22;11050;52.222;20.916;2024-02-26T10:12:07;12.70;99.90
21778;DHT22;11050;52.222;20.916;2024-02-26T10:14:35;12.70;99.90
21778;DHT22;11050;52.222;20.916;2024-02-26T10:17:02;12.80;99.90
21778;DHT22;11050;52.222;20.916;2024-02-26T10:19:29;12.70;99.90
21778;DHT22;11050;52.222;20.916;2024-02-26T10:21:59;12.70;99.90
21778;DHT22;11050;52.222;20.916;2024-02-26T10:24:27;12.80;99.90
21778;DHT22;11050;52.222;20.916;2024-02-26T10:26:55;12.90;99.90
21778;DHT22;11050;52.222;20.916;2024-02-26T10:29:23;12.90;99.90
21778;DHT22;11050;52.222;20.916;2024-02-26T10:31:51;13.00;99.90
21778;DHT22;11050;52.222;20.916;2024-02-26T10:34:18;13.10;99.90
21778;DHT22;11050;52.222;20.916;2024-02-26T10:36:44;13.20;99.90
21778;DHT22;11050;52.222;20.916;2024-02-26T10:39:12;13.20;99.90
21778;DHT22;11050;52.222;20.916;2024-02-26T10:41:43;13.30;99.90
21778;DHT22;11050;52.222;20.916;2024-02-26T10:44:10;13.40;99.90
21778;DHT22;11050;52.222;20.916;2024-02-26T10:46:42;13.40;99.90
21778;DHT22;11050;52.222;20.916;2024-02-26T10:49:15;13.50;99.90
21778;DHT22;11050;52.222;20.916;2024-02-26T10:51:45;13.60;99.90
21778;DHT22;11050;52.222;20.916;2024-02-26T10:54:16;13.80;99.90
21778;DHT22;11050;52.222;20.916;2024-02-26T10:56:42;13.80;99.90
21778;DHT22;11050;52.222;20.916;2024-02-26T10:59:12;13.90;99.90
21778;DHT22;11050;52.222;20.916;2024-02-26T11:01:39;13.90;99.90
21778;DHT22;11050;52.222;20.916;2024-02-26T11:04:06;13.80;99.90
21778;DHT22;11050;52.222;20.916;2024-02-26T11:06:35;13.80;99.90
21778;DHT22;11050;52.222;20.916;2024-02-26T11:09:02;13.70;99.90
21778;DHT22;11050;52.222;20.916;2024-02-26T11:11:30;13.50;99.90
21778;DHT22;11050;52.222;20.916;2024-02-26T11:14:01;13.50;99.90
21778;DHT22;11050;52.222;20.916;2024-02-26T11:16:29;13.40;99.90
21778;DHT22;11050;52.222;20.916;2024-02-26T11:18:55;13.40;99.90
21778;DHT22;11050;52.222;20.916;2024-02-26T11:21:23;13.40;99.90
21778;DHT22;11050;52.222;20.916;2024-02-26T11:24:13;13.30;99.90
21778;DHT22;11050;52.222;20.916;2024-02-26T11:26:49;13.20;99.90
21778;DHT22;11050;52.222;20.916;2024-02-26T11:29:27;13.30;99.90
21778;DHT22;11050;52.222;20.916;2024-02-26T11:32:01;13.20;99.90
21778;DHT22;11050;52.222;20.916;2024-02-26T11:34:27;13.30;99.90
21778;DHT22;11050;52.222;20.916;2024-02-26T11:36:54;13.60;99.90
21778;DHT22;11050;52.222;20.916;2024-02-26T11:39:22;13.80;99.90
21778;DHT22;11050;52.222;20.916;2024-02-26T11:41:48;14.00;99.90
21778;DHT22;11050;52.222;20.916;2024-02-26T11:44:28;14.30;99.90
21778;DHT22;11050;52.222;20.916;2024-02-26T11:46:56;14.60;99.90
21778;DHT22;11050;52.222;20.916;2024-02-26T11:51:54;14.90;99.90
21778;DHT22;11050;52.222;20.916;2024-02-26T11:54:43;15.20;99.90
21778;DHT22;11050;52.222;20.916;2024-02-26T12:02:45;16.40;99.90
21778;DHT22;11050;52.222;20.916;2024-02-26T12:05:22;16.90;99.90
21778;DHT22;11050;52.222;20.916;2024-02-26T12:10:31;17.70;99.90
21778;DHT22;11050;52.222;20.916;2024-02-26T12:13:08;18.00;98.60
21778;DHT22;11050;52.222;20.916;2024-02-26T12:15:45;18.30;96.40
21778;DHT22;11050;52.222;20.916;2024-02-26T12:18:20;18.50;94.50
21778;DHT22;11050;52.222;20.916;2024-02-26T12:21:01;18.80;92.70
21778;DHT22;11050;52.222;20.916;2024-02-26T12:23:28;19.10;91.30
21778;DHT22;11050;52.222;20.916;2024-02-26T12:25:58;19.30;90.00
21778;DHT22;11050;52.222;20.916;2024-02-26T12:28:28;19.40;87.40
21778;DHT22;11050;52.222;20.916;2024-02-26T12:30:55;19.60;85.90
21778;DHT22;11050;52.222;20.916;2024-02-26T12:33:21;19.70;84.20
21778;DHT22;11050;52.222;20.916;2024-02-26T12:35:47;19.90;82.40
21778;DHT22;11050;52.222;20.916;2024-02-26T12:38:14;20.00;79.70
21778;DHT22;11050;52.222;20.916;2024-02-26T12:40:41;20.20;78.00
21778;DHT22;11050;52.222;20.916;2024-02-26T12:43:08;20.40;77.60
21778;DHT22;11050;52.222;20.916;2024-02-26T12:45:40;20.50;75.80
21778;DHT22;11050;52.222;20.916;2024-02-26T12:48:06;20.70;74.50
21778;DHT22;11050;52.222;20.916;2024-02-26T12:50:33;20.80;73.30
21778;DHT22;11050;52.222;20.916;2024-02-26T12:52:59;21.00;72.30
21778;DHT22;11050;52.222;20.916;2024-02-26T12:55:26;21.10;69.90
21778;DHT22;11050;52.222;20.916;2024-02-26T12:57:53;21.30;68.80
21778;DHT22;11050;52.222;20.916;2024-02-26T13:00:25;21.50;67.90
21778;DHT22;11050;52.222;20.916;2024-02-26T13:02:53;21.60;66.40
21778;DHT22;11050;52.222;20.916;2024-02-26T13:05:21;21.60;65.90
21778;DHT22;11050;52.222;20.916;2024-02-26T13:07:48;21.70;65.60
21778;DHT22;11050;52.222;20.916;2024-02-26T13:10:14;21.80;63.00
21778;DHT22;11050;52.222;20.916;2024-02-26T13:12:47;21.80;62.20
21778;DHT22;11050;52.222;20.916;2024-02-26T13:15:19;21.90;62.80
21778;DHT22;11050;52.222;20.916;2024-02-26T13:17:46;22.00;63.50
21778;DHT22;11050;52.222;20.916;2024-02-26T13:20:24;22.20;63.10
21778;DHT22;11050;52.222;20.916;2024-02-26T13:23:03;22.30;62.40
21778;DHT22;11050;52.222;20.916;2024-02-26T13:25:34;22.50;61.70
21778;DHT22;11050;52.222;20.916;2024-02-26T13:28:29;22.50;60.70
21778;DHT22;11050;52.222;20.916;2024-02-26T13:30:57;22.60;61.00
21778;DHT22;11050;52.222;20.916;2024-02-26T13:33:24;22.60;59.80
21778;DHT22;11050;52.222;20.916;2024-02-26T13:35:51;22.60;59.50
21778;DHT22;11050;52.222;20.916;2024-02-26T13:38:17;22.60;59.70
21778;DHT22;11050;52.222;20.916;2024-02-26T13:40:43;22.70;59.20
21778;DHT22;11050;52.222;20.916;2024-02-26T13:43:09;22.70;58.80
21778;DHT22;11050;52.222;20.916;2024-02-26T13:45:36;22.70;58.20
21778;DHT22;11050;52.222;20.916;2024-02-26T13:48:07;22.80;57.90
21778;DHT22;11050;52.222;20.916;2024-02-26T13:50:35;22.80;57.60
21778;DHT22;11050;52.222;20.916;2024-02-26T13:53:01;22.70;56.70
21778;DHT22;11050;52.222;20.916;2024-02-26T13:55:28;22.60;56.80
21778;DHT22;11050;52.222;20.916;2024-02-26T13:57:59;22.60;56.40
21778;DHT22;11050;52.222;20.916;2024-02-26T14:00:27;22.60;56.30
21778;DHT22;11050;52.222;20.916;2024-02-26T14:02:54;22.70;56.10
21778;DHT22;11050;52.222;20.916;2024-02-26T14:05:20;22.60;56.20
21778;DHT22;11050;52.222;20.916;2024-02-26T14:07:46;22.60;55.90
21778;DHT22;11050;52.222;20.916;2024-02-26T14:10:12;22.40;55.90
21778;DHT22;11050;52.222;20.916;2024-02-26T14:12:38;22.20;56.40
21778;DHT22;11050;52.222;20.916;2024-02-26T14:15:06;22.00;56.90
21778;DHT22;11050;52.222;20.916;2024-02-26T14:17:32;21.70;57.10
21778;DHT22;11050;52.222;20.916;2024-02-26T14:19:58;21.70;57.20
21778;DHT22;11050;52.222;20.916;2024-02-26T14:22:25;21.60;57.60
21778;DHT22;11050;52.222;20.916;2024-02-26T14:24:53;21.40;57.50
21778;DHT22;11050;52.222;20.916;2024-02-26T14:27:19;21.20;57.90
21778;DHT22;11050;52.222;20.916;2024-02-26T14:29:47;21.20;57.60
21778;DHT22;11050;52.222;20.916;2024-02-26T14:32:14;21.20;57.80
21778;DHT22;11050;52.222;20.916;2024-02-26T14:34:40;21.10;58.40
21778;DHT22;11050;52.222;20.916;2024-02-26T14:37:06;21.10;58.40
21778;DHT22;11050;52.222;20.916;2024-02-26T14:39:32;21.10;58.80
21778;DHT22;11050;52.222;20.916;2024-02-26T14:41:59;21.00;58.80
21778;DHT22;11050;52.222;20.916;2024-02-26T14:44:26;21.00;59.40
21778;DHT22;11050;52.222;20.916;2024-02-26T14:46:52;20.90;59.50
21778;DHT22;11050;52.222;20.916;2024-02-26T14:49:17;20.80;60.00
21778;DHT22;11050;52.222;20.916;2024-02-26T14:51:44;20.70;60.40
21778;DHT22;11050;52.222;20.916;2024-02-26T14:54:14;20.60;61.10
21778;DHT22;11050;52.222;20.916;2024-02-26T14:56:40;20.40;61.30
21778;DHT22;11050;52.222;20.916;2024-02-26T14:59:06;20.20;61.90
21778;DHT22;11050;52.222;20.916;2024-02-26T15:01:32;20.00;62.80
21778;DHT22;11050;52.222;20.916;2024-02-26T15:03:58;19.80;63.20
21778;DHT22;11050;52.222;20.916;2024-02-26T15:06:25;19.50;64.30
21778;DHT22;11050;52.222;20.916;2024-02-26T15:08:51;19.30;65.20
21778;DHT22;11050;52.222;20.916;2024-02-26T15:11:18;19.00;66.30
21778;DHT22;11050;52.222;20.916;2024-02-26T15:13:43;18.80;67.00
21778;DHT22;11050;52.222;20.916;2024-02-26T15:16:17;18.50;68.40
21778;DHT22;11050;52.222;20.916;2024-02-26T15:18:47;18.30;69.10
21778;DHT22;11050;52.222;20.916;2024-02-26T15:21:13;18.10;70.40
21778;DHT22;11050;52.222;20.916;2024-02-26T15:23:42;17.90;71.20
21778;DHT22;11050;52.222;20.916;2024-02-26T15:26:10;17.70;72.40
21778;DHT22;11050;52.222;20.916;2024-02-26T15:28:36;17.40;73.30
21778;DHT22;11050;52.222;20.916;2024-02-26T15:31:02;17.10;74.70
21778;DHT22;11050;52.222;20.916;2024-02-26T15:33:27;16.90;76.00
21778;DHT22;11050;52.222;20.916;2024-02-26T15:35:53;16.70;77.00